Time;durP1;ratioP1;P1;durP2;ratioP2;P2;SDS_P1;SDS_P2;PMS_P1;PMS_P2;Temp;Humidity;BMP_temperature;BMP_pressure;BME280_temperature;BME280_humidity;BME280_pressure;Samples;Min_cycle;Max_cycle;Signal;HPM_P1;HPM_P2
2022/05/01 00:02:24;;;;;;;;;;;;;;;5.34;56.53125;102660.1;;;;-79
2022/05/01 00:07:26;;;;;;;;;;;;;;;5.29;56.60254;102660.2;;;;-79
2022/05/01 00:12:24;;;;;;;;;;;;;;;5.27;56.64258;102653.3;;;;-82
2022/05/01 00:17:24;;;;;;;;;;;;;;;5.2;56.68848;102647.1;;;;-79
2022/05/01 00:22:24;;;;;;;;;;;;;;;5.14;56.71289;102645.5;;;;-80
2022/05/01 00:27:25;;;;;;;;;;;;;;;5.08;56.76074;102639.1;;;;-81
2022/05/01 00:29:45;;;;;;;8.7;4.7;;;;;;;;;;;;;-81
2022/05/01 00:32:26;;;;;;;;;;;;;;;5.04;56.82031;102641.6;;;;-80
2022/05/01 00:37:24;;;;;;;;;;;;;;;4.99;56.96875;102639.5;;;;-80
2022/05/01 00:42:24;;;;;;;;;;;;;;;4.94;56.89648;102634.3;;;;-81
2022/05/01 00:47:24;;;;;;;;;;;;;;;4.85;57.10449;102629.7;;;;-80
2022/05/01 00:52:25;;;;;;;;;;;;;;;4.77;57.10449;102626.2;;;;-82
2022/05/01 00:57:24;;;;;;;;;;;;;;;4.75;57.19043;102618.8;;;;-80
2022/05/01 00:59:46;;;;;;;10.8;4.8;;;;;;;;;;;;;-81
2022/05/01 01:02:24;;;;;;;;;;;;;;;4.73;57.20898;102615.2;;;;-81
2022/05/01 01:07:24;;;;;;;;;;;;;;;4.68;57.18066;102611.5;;;;-80
2022/05/01 01:17:25;;;;;;;;;;;;;;;4.52;57.29004;102607.2;;;;-79
2022/05/01 01:22:24;;;;;;;;;;;;;;;4.47;57.2959;102612.3;;;;-79
2022/05/01 01:27:24;;;;;;;;;;;;;;;4.42;57.26758;102610.9;;;;-80
2022/05/01 01:32:25;;;;;;;;;;;;;;;4.41;57.4082;102615.8;;;;-80
2022/05/01 01:37:26;;;;;;;;;;;;;;;4.36;57.45508;102615.1;;;;-80
2022/05/01 01:42:25;;;;;;;;;;;;;;;4.32;57.30762;102614.8;;;;-81
2022/05/01 01:47:25;;;;;;;;;;;;;;;4.25;57.28809;102609.5;;;;-80
2022/05/01 01:52:24;;;;;;;;;;;;;;;4.21;57.44727;102605.7;;;;-80
2022/05/01 01:57:24;;;;;;;;;;;;;;;4.18;57.36621;102604.9;;;;-79
2022/05/01 01:59:47;;;;;;;8.8;4.6;;;;;;;;;;;;;-78
2022/05/01 02:02:24;;;;;;;;;;;;;;;4.11;57.37891;102608.1;;;;-82
2022/05/01 02:07:24;;;;;;;;;;;;;;;4.09;57.33105;102613;;;;-80
2022/05/01 02:12:24;;;;;;;;;;;;;;;4.03;57.34668;102607.9;;;;-80
2022/05/01 02:17:24;;;;;;;;;;;;;;;3.96;57.33691;102607;;;;-80
2022/05/01 02:22:24;;;;;;;;;;;;;;;3.95;57.36914;102605.1;;;;-79
2022/05/01 02:27:24;;;;;;;;;;;;;;;3.93;57.39844;102603.1;;;;-79
2022/05/01 02:29:44;;;;;;;10.6;4.7;;;;;;;;;;;;;-79
2022/05/01 02:32:24;;;;;;;;;;;;;;;3.91;57.24219;102601.2;;;;-80
2022/05/01 02:37:24;;;;;;;;;;;;;;;3.86;57.3125;102594.7;;;;-78
2022/05/01 02:42:24;;;;;;;;;;;;;;;3.84;57.49707;102589.1;;;;-81
2022/05/01 02:47:24;;;;;;;;;;;;;;;3.83;57.52734;102583;;;;-80
2022/05/01 02:52:24;;;;;;;;;;;;;;;3.77;57.58496;102580.9;;;;-80
2022/05/01 02:57:24;;;;;;;;;;;;;;;3.73;57.53613;102588.6;;;;-78
2022/05/01 02:59:44;;;;;;;8.3;4.4;;;;;;;;;;;;;-79
2022/05/01 03:02:24;;;;;;;;;;;;;;;3.68;57.66113;102589.5;;;;-78
2022/05/01 03:07:24;;;;;;;;;;;;;;;3.68;57.57324;102588.5;;;;-80
2022/05/01 03:12:24;;;;;;;;;;;;;;;3.63;57.52246;102582.6;;;;-80
2022/05/01 03:17:24;;;;;;;;;;;;;;;3.61;57.48828;102579.8;;;;-80
2022/05/01 03:22:24;;;;;;;;;;;;;;;3.54;57.47852;102577.8;;;;-80
2022/05/01 03:27:24;;;;;;;;;;;;;;;3.51;57.62793;102574.5;;;;-78
2022/05/01 03:30:15;;;;;;;9.3;4.7;;;;;;;;;;;;;-78
2022/05/01 03:32:24;;;;;;;;;;;;;;;3.48;57.6123;102573.2;;;;-79
2022/05/01 03:37:24;;;;;;;;;;;;;;;3.45;57.53223;102567.2;;;;-79
2022/05/01 03:42:24;;;;;;;;;;;;;;;3.39;57.62305;102568.3;;;;-81
2022/05/01 03:47:25;;;;;;;;;;;;;;;3.34;57.51758;102563;;;;-81
2022/05/01 03:52:24;;;;;;;;;;;;;;;3.34;57.5498;102568.7;;;;-80
2022/05/01 03:57:24;;;;;;;;;;;;;;;3.29;57.35645;102566.6;;;;-79
2022/05/01 03:59:42;;;;;;;9.1;4.5;;;;;;;;;;;;;-80
2022/05/01 04:02:24;;;;;;;;;;;;;;;3.28;57.4209;102569.5;;;;-82
2022/05/01 04:07:24;;;;;;;;;;;;;;;3.26;57.35156;102572.8;;;;-80
2022/05/01 04:12:24;;;;;;;;;;;;;;;3.25;57.38477;102571;;;;-79
2022/05/01 04:17:24;;;;;;;;;;;;;;;3.24;57.32715;102572;;;;-80
2022/05/01 04:22:24;;;;;;;;;;;;;;;3.23;57.27148;102569.4;;;;-80
2022/05/01 04:27:24;;;;;;;;;;;;;;;3.23;57.32715;102574.8;;;;-81
2022/05/01 04:29:43;;;;;;;7.6;4.1;;;;;;;;;;;;;-79
2022/05/01 04:32:24;;;;;;;;;;;;;;;3.24;57.24121;102575;;;;-81
2022/05/01 04:37:25;;;;;;;;;;;;;;;3.25;57.27539;102573.2;;;;-81
2022/05/01 04:42:24;;;;;;;;;;;;;;;3.28;57.32227;102577.7;;;;-80
2022/05/01 04:47:24;;;;;;;;;;;;;;;3.32;57.23047;102578.7;;;;-80
2022/05/01 04:52:24;;;;;;;;;;;;;;;3.38;57.2373;102580.6;;;;-80
2022/05/01 04:57:24;;;;;;;;;;;;;;;3.49;57.04395;102588.5;;;;-80
2022/05/01 04:59:44;;;;;;;7.6;4;;;;;;;;;;;;;-79
2022/05/01 05:02:24;;;;;;;;;;;;;;;3.58;56.94629;102592.5;;;;-81
2022/05/01 05:07:25;;;;;;;;;;;;;;;3.65;56.94531;102592.3;;;;-79
2022/05/01 05:12:29;;;;;;;;;;;;;;;3.73;56.91113;102598.5;;;;-79
2022/05/01 05:17:24;;;;;;;;;;;;;;;3.9;56.71582;102597.5;;;;-82
2022/05/01 05:22:24;;;;;;;;;;;;;;;4.14;56.42676;102604.2;;;;-80
2022/05/01 05:27:25;;;;;;;;;;;;;;;4.39;56.06641;102608.6;;;;-79
2022/05/01 05:29:42;;;;;;;7.9;3.6;;;;;;;;;;;;;-79
2022/05/01 05:32:24;;;;;;;;;;;;;;;4.65;55.8252;102608.5;;;;-79
2022/05/01 05:37:24;;;;;;;;;;;;;;;4.97;55.42578;102611.9;;;;-81
2022/05/01 05:42:24;;;;;;;;;;;;;;;5.4;54.78711;102610.8;;;;-79
2022/05/01 05:47:26;;;;;;;;;;;;;;;5.9;53.97949;102611.9;;;;-79
2022/05/01 05:52:24;;;;;;;;;;;;;;;6.47;53.39941;102614.2;;;;-79
2022/05/01 05:57:25;;;;;;;;;;;;;;;6.92;52.5918;102611.3;;;;-80
2022/05/01 05:59:42;;;;;;;7.3;3.7;;;;;;;;;;;;;-80
2022/05/01 06:02:24;;;;;;;;;;;;;;;7.21;51.97461;102615.8;;;;-81
2022/05/01 06:07:24;;;;;;;;;;;;;;;7.47;51.72852;102615.3;;;;-81
2022/05/01 06:12:24;;;;;;;;;;;;;;;7.63;51.68164;102614.8;;;;-81
2022/05/01 06:17:24;;;;;;;;;;;;;;;7.74;51.57227;102614.8;;;;-81
2022/05/01 06:22:24;;;;;;;;;;;;;;;7.87;51.74316;102615.9;;;;-79
2022/05/01 06:27:24;;;;;;;;;;;;;;;8.05;51.78711;102616.5;;;;-80
2022/05/01 06:29:41;;;;;;;7;3.9;;;;;;;;;;;;;-82
2022/05/01 06:32:24;;;;;;;;;;;;;;;8.24;51.73145;102618.4;;;;-81
2022/05/01 06:37:25;;;;;;;;;;;;;;;8.47;51.60352;102613.5;;;;-82
2022/05/01 06:42:24;;;;;;;;;;;;;;;8.8;51.24316;102612;;;;-81
2022/05/01 06:47:24;;;;;;;;;;;;;;;9.35;51.00781;102612.3;;;;-81
2022/05/01 06:52:26;;;;;;;;;;;;;;;10.09;50.55762;102604.1;;;;-80
2022/05/01 06:57:24;;;;;;;;;;;;;;;10.81;50.17285;102603.1;;;;-81
2022/05/01 06:59:41;;;;;;;8;4.4;;;;;;;;;;;;;-76
2022/05/01 07:02:23;;;;;;;;;;;;;;;11.39;49.36816;102601.7;;;;-80
2022/05/01 07:07:23;;;;;;;;;;;;;;;11.84;48.52344;102602;;;;-82
2022/05/01 07:12:24;;;;;;;;;;;;;;;12.15;48.38867;102599.4;;;;-80
2022/05/01 07:17:23;;;;;;;;;;;;;;;12.25;48.33301;102600.3;;;;-81
2022/05/01 07:22:24;;;;;;;;;;;;;;;12.28;48.3916;102600.3;;;;-81
2022/05/01 07:27:24;;;;;;;;;;;;;;;12.26;49.00684;102595.6;;;;-81
2022/05/01 07:29:42;;;;;;;7.1;4.2;;;;;;;;;;;;;-82
2022/05/01 07:32:23;;;;;;;;;;;;;;;12.32;48.7998;102592.4;;;;-81
2022/05/01 07:37:26;;;;;;;;;;;;;;;12.39;48.4834;102594.3;;;;-80
2022/05/01 07:42:24;;;;;;;;;;;;;;;12.46;48.20898;102593.9;;;;-80
2022/05/01 07:47:24;;;;;;;;;;;;;;;12.53;48.80078;102591.3;;;;-81
2022/05/01 07:52:25;;;;;;;;;;;;;;;12.72;49.00195;102594.5;;;;-80
2022/05/01 07:57:26;;;;;;;;;;;;;;;13;48.9209;102588.8;;;;-80
2022/05/01 07:59:44;;;;;;;7.7;4.3;;;;;;;;;;;;;-82
2022/05/01 08:02:24;;;;;;;;;;;;;;;13.21;48.77637;102587;;;;-80
2022/05/01 08:07:24;;;;;;;;;;;;;;;13.38;48.31152;102579.7;;;;-81
2022/05/01 08:12:23;;;;;;;;;;;;;;;13.6;48.60449;102582.2;;;;-81
2022/05/01 08:17:24;;;;;;;;;;;;;;;13.98;48.62598;102582.9;;;;-83
2022/05/01 08:22:24;;;;;;;;;;;;;;;14.23;48.01074;102576.7;;;;-81
2022/05/01 08:27:26;;;;;;;;;;;;;;;14.32;48.03223;102573.9;;;;-82
2022/05/01 08:29:45;;;;;;;8.7;5.2;;;;;;;;;;;;;-80
2022/05/01 08:32:26;;;;;;;;;;;;;;;14.35;47.76563;102570.6;;;;-80
2022/05/01 08:37:23;;;;;;;;;;;;;;;14.42;47.49121;102573.5;;;;-80
2022/05/01 08:42:25;;;;;;;;;;;;;;;14.45;47.14453;102575.3;;;;-81
2022/05/01 08:47:27;;;;;;;;;;;;;;;14.49;47.19434;102575.8;;;;-80
2022/05/01 08:52:25;;;;;;;;;;;;;;;14.54;47.31152;102576.5;;;;-81
2022/05/01 08:57:28;;;;;;;;;;;;;;;14.63;46.9834;102573.9;;;;-81
2022/05/01 08:59:46;;;;;;;8.9;4.6;;;;;;;;;;;;;-82
2022/05/01 09:02:24;;;;;;;;;;;;;;;14.68;47.17969;102574;;;;-80
2022/05/01 09:07:23;;;;;;;;;;;;;;;14.71;47.22852;102574.7;;;;-81
2022/05/01 09:17:25;;;;;;;;;;;;;;;14.85;46.87012;102574.7;;;;-82
2022/05/01 09:22:24;;;;;;;;;;;;;;;14.92;47.08105;102571.2;;;;-81
2022/05/01 09:27:32;;;;;;;;;;;;;;;15;46.74121;102570.9;;;;-83
2022/05/01 09:29:49;;;;;;;6.5;4.3;;;;;;;;;;;;;-81
2022/05/01 09:32:33;;;;;;;;;;;;;;;15.1;46.46777;102573.7;;;;-79
2022/05/01 09:37:24;;;;;;;;;;;;;;;15.21;46.50195;102575.2;;;;-81
2022/05/01 09:42:28;;;;;;;;;;;;;;;15.35;46.35938;102575.3;;;;-81
2022/05/01 09:47:35;;;;;;;;;;;;;;;15.58;46.48633;102577.5;;;;-82
2022/05/01 09:52:23;;;;;;;;;;;;;;;16.05;46.01563;102573.9;;;;-81
2022/05/01 09:57:29;;;;;;;;;;;;;;;16.57;44.49219;102573.5;;;;-82
2022/05/01 09:59:52;;;;;;;7.8;3.6;;;;;;;;;;;;;-82
2022/05/01 10:02:30;;;;;;;;;;;;;;;16.95;43.63477;102566.8;;;;-82
2022/05/01 10:07:24;;;;;;;;;;;;;;;17.32;43.63672;102566.5;;;;-82
2022/05/01 10:12:27;;;;;;;;;;;;;;;17.68;43.29785;102560.3;;;;-79
2022/05/01 10:17:24;;;;;;;;;;;;;;;18.08;42.74512;102550.8;;;;-81
2022/05/01 10:22:26;;;;;;;;;;;;;;;18.52;43.50488;102552.4;;;;-78
2022/05/01 10:27:28;;;;;;;;;;;;;;;18.91;42.9502;102551.2;;;;-83
2022/05/01 10:32:32;;;;;;;;;;;;;;;19.26;43.06348;102543.5;;;;-81
2022/05/01 10:37:32;;;;;;;;;;;;;;;19.7;42.96973;102534.4;;;;-82
2022/05/01 10:42:38;;;;;;;;;;;;;;;20.19;42.69824;102537.2;;;;-80
2022/05/01 10:47:24;;;;;;;;;;;;;;;20.71;43.27344;102532.7;;;;-81
2022/05/01 10:52:26;;;;;;;;;;;;;;;21.18;43.16992;102527.2;;;;-81
2022/05/01 10:57:24;;;;;;;;;;;;;;;21.56;41.86426;102519.8;;;;-80
2022/05/01 11:00:05;;;;;;;5.3;3.1;;;;;;;;;;;;;-83
2022/05/01 11:02:28;;;;;;;;;;;;;;;22.07;41.14258;102515.9;;;;-78
2022/05/01 11:07:25;;;;;;;;;;;;;;;22.65;41.56445;102513.3;;;;-84
2022/05/01 11:12:24;;;;;;;;;;;;;;;23.05;40.77344;102507.9;;;;-84
2022/05/01 11:17:31;;;;;;;;;;;;;;;23.47;40.84473;102502.5;;;;-81
2022/05/01 11:22:27;;;;;;;;;;;;;;;23.76;41.73633;102495.2;;;;-82
2022/05/01 11:27:27;;;;;;;;;;;;;;;24.03;41.49609;102489.8;;;;-84
2022/05/01 11:30:07;;;;;;;4.4;3;;;;;;;;;;;;;-86
2022/05/01 11:32:24;;;;;;;;;;;;;;;24.12;41.42383;102482.2;;;;-82
2022/05/01 11:37:28;;;;;;;;;;;;;;;24.3;40.05469;102474.9;;;;-84
2022/05/01 11:42:35;;;;;;;;;;;;;;;24.65;38.25879;102469.4;;;;-82
2022/05/01 11:47:27;;;;;;;;;;;;;;;25.16;38.3125;102467.3;;;;-82
2022/05/01 11:52:43;;;;;;;;;;;;;;;25.47;36.92578;102465.5;;;;-85
2022/05/01 12:02:31;;;;;;;;;;;;;;;25.25;38.06641;102452.1;;;;-82
2022/05/01 12:07:26;;;;;;;;;;;;;;;25;37.61719;102451;;;;-83
2022/05/01 12:12:31;;;;;;;;;;;;;;;24.77;38.17578;102448.1;;;;-85
2022/05/01 12:17:26;;;;;;;;;;;;;;;24.77;36.7998;102435.4;;;;-86
2022/05/01 12:22:30;;;;;;;;;;;;;;;24.98;36.35254;102432.7;;;;-86
2022/05/01 12:27:29;;;;;;;;;;;;;;;25.17;37.05176;102426.3;;;;-74
2022/05/01 12:30:04;;;;;;;4.6;2.5;;;;;;;;;;;;;-74
2022/05/01 12:32:24;;;;;;;;;;;;;;;25.39;36.45508;102428.2;;;;-74
2022/05/01 12:37:24;;;;;;;;;;;;;;;25.47;36.94922;102425.6;;;;-75
2022/05/01 12:47:36;;;;;;;;;;;;;;;25.55;38.64844;102415.6;;;;-72
2022/05/01 12:52:36;;;;;;;;;;;;;;;25.59;37.0752;102412.3;;;;-74
2022/05/01 12:57:40;;;;;;;;;;;;;;;25.63;38.77051;102409;;;;-74
2022/05/01 13:00:06;;;;;;;3.7;2.2;;;;;;;;;;;;;-73
2022/05/01 13:02:23;;;;;;;;;;;;;;;25.71;38.39551;102409.5;;;;-73
2022/05/01 13:07:35;;;;;;;;;;;;;;;25.79;38.10156;102407.1;;;;-73
2022/05/01 13:12:30;;;;;;;;;;;;;;;25.93;37.14941;102403.5;;;;-73
2022/05/01 13:17:24;;;;;;;;;;;;;;;26.15;36.93555;102399.6;;;;-75
2022/05/01 13:22:23;;;;;;;;;;;;;;;26.44;36.34375;102398.5;;;;-74
2022/05/01 13:27:24;;;;;;;;;;;;;;;26.43;37.27148;102396.5;;;;-74
2022/05/01 13:30:09;;;;;;;3.9;2.4;;;;;;;;;;;;;-74
2022/05/01 13:32:23;;;;;;;;;;;;;;;26.13;36.91113;102394.9;;;;-74
2022/05/01 13:37:23;;;;;;;;;;;;;;;25.82;37.46484;102394.9;;;;-74
2022/05/01 13:47:24;;;;;;;;;;;;;;;25.25;38.19434;102378.1;;;;-75
2022/05/01 13:52:23;;;;;;;;;;;;;;;25.27;38.17188;102378.3;;;;-74
2022/05/01 13:57:24;;;;;;;;;;;;;;;25.43;37.05078;102372.4;;;;-74
2022/05/01 14:00:17;;;;;;;4.4;2.4;;;;;;;;;;;;;-75
2022/05/01 14:02:24;;;;;;;;;;;;;;;25.58;36.48242;102368.4;;;;-75
2022/05/01 14:07:24;;;;;;;;;;;;;;;25.73;36.85449;102364;;;;-74
2022/05/01 14:12:23;;;;;;;;;;;;;;;25.87;35.76367;102363.8;;;;-75
2022/05/01 14:17:23;;;;;;;;;;;;;;;25.78;36.8125;102358.5;;;;-75
2022/05/01 14:22:24;;;;;;;;;;;;;;;25.54;37.91699;102354.3;;;;-73
2022/05/01 14:27:24;;;;;;;;;;;;;;;25.27;38.03223;102352.1;;;;-74
2022/05/01 14:30:17;;;;;;;3.3;2;;;;;;;;;;;;;-73
2022/05/01 14:32:27;;;;;;;;;;;;;;;25.17;36.18262;102345.9;;;;-76
2022/05/01 14:37:26;;;;;;;;;;;;;;;25.26;35.85352;102343.7;;;;-74
2022/05/01 14:42:25;;;;;;;;;;;;;;;25.3;36.03027;102341.5;;;;-73
2022/05/01 14:47:31;;;;;;;;;;;;;;;25.25;35.92285;102341.8;;;;-73
2022/05/01 14:52:24;;;;;;;;;;;;;;;25.21;35.54785;102342.1;;;;-76
2022/05/01 14:57:24;;;;;;;;;;;;;;;25.24;36.16504;102336.2;;;;-76
2022/05/01 15:07:25;;;;;;;;;;;;;;;25.4;36.65332;102338.8;;;;-74
2022/05/01 15:12:23;;;;;;;;;;;;;;;25.5;36.40625;102334;;;;-74
2022/05/01 15:17:27;;;;;;;;;;;;;;;25.63;36.39355;102328.2;;;;-74
2022/05/01 15:22:29;;;;;;;;;;;;;;;25.65;36.34961;102331;;;;-75
2022/05/01 15:27:28;;;;;;;;;;;;;;;25.55;36.09766;102325;;;;-74
2022/05/01 15:30:26;;;;;;;4.2;2.7;;;;;;;;;;;;;-73
2022/05/01 15:32:24;;;;;;;;;;;;;;;25.33;34.82813;102324;;;;-73
2022/05/01 15:37:25;;;;;;;;;;;;;;;25.01;35.625;102325.7;;;;-73
2022/05/01 15:42:24;;;;;;;;;;;;;;;24.68;35.94629;102327.9;;;;-75
2022/05/01 15:47:31;;;;;;;;;;;;;;;24.34;36.16211;102323.1;;;;-74
2022/05/01 15:57:24;;;;;;;;;;;;;;;23.66;36.48828;102325.9;;;;-74
2022/05/01 16:00:29;;;;;;;3.7;2.6;;;;;;;;;;;;;-81
2022/05/01 16:02:27;;;;;;;;;;;;;;;23.3;36.79395;102323.3;;;;-80
2022/05/01 16:07:29;;;;;;;;;;;;;;;22.93;36.99414;102322.3;;;;-79
2022/05/01 16:12:13;;;;;;;;;;;;;;;22.62;37.38281;102321.5;;;;-80
2022/05/01 16:17:07;;;;;;;;;;;;;;;22.3;37.63281;102322.8;;;;-81
2022/05/01 16:22:10;;;;;;;;;;;;;;;22;37.88379;102319.7;;;;-81
2022/05/01 16:27:07;;;;;;;;;;;;;;;21.73;38.03223;102311.7;;;;-81
2022/05/01 16:30:31;;;;;;;4.4;2.7;;;;;;;;;;;;;-81
2022/05/01 16:32:19;;;;;;;;;;;;;;;21.52;38.22168;102306.9;;;;-82
2022/05/01 16:37:10;;;;;;;;;;;;;;;21.34;38.33301;102301.3;;;;-82
2022/05/01 16:42:08;;;;;;;;;;;;;;;21.21;38.20703;102301.3;;;;-81
2022/05/01 16:47:08;;;;;;;;;;;;;;;21.1;38.17383;102295.4;;;;-81
2022/05/01 16:52:07;;;;;;;;;;;;;;;20.99;38.06152;102293.5;;;;-85
2022/05/01 17:07:33;;;;;;;;;;;;;;;20.7;38.12891;102295;;;;-84
2022/05/01 17:12:44;;;;;;;;;;;;;;;20.52;38.44531;102291.9;;;;-85
2022/05/01 17:17:33;;;;;;;;;;;;;;;20.27;38.33203;102293.4;;;;-83
2022/05/01 17:22:30;;;;;;;;;;;;;;;20.01;37.96582;102292.8;;;;-83
2022/05/01 17:27:34;;;;;;;;;;;;;;;19.78;38.44922;102297.5;;;;-84
2022/05/01 17:30:52;;;;;;;5;2.6;;;;;;;;;;;;;-85
2022/05/01 17:47:11;;;;;;;;;;;;;;;18.88;38.40625;102298.1;;;;-80
2022/05/01 17:52:06;;;;;;;;;;;;;;;18.66;38.60352;102300.2;;;;-81
2022/05/01 17:57:05;;;;;;;;;;;;;;;18.44;38.71094;102308.3;;;;-82
2022/05/01 18:00:53;;;;;;;3;1.8;;;;;;;;;;;;;-81
2022/05/01 18:02:22;;;;;;;;;;;;;;;18.23;38.77148;102313.1;;;;-81
2022/05/01 18:12:26;;;;;;;;;;;;;;;17.79;38.66504;102314.6;;;;-81
2022/05/01 18:17:07;;;;;;;;;;;;;;;17.53;38.84766;102315;;;;-80
2022/05/01 18:22:10;;;;;;;;;;;;;;;17.28;38.8252;102311.5;;;;-81
2022/05/01 18:27:08;;;;;;;;;;;;;;;17.04;39.09961;102311.1;;;;-81
2022/05/01 18:30:44;;;;;;;3.2;1.8;;;;;;;;;;;;;-82
2022/05/01 18:32:15;;;;;;;;;;;;;;;16.75;38.9834;102315.1;;;;-81
2022/05/01 18:37:06;;;;;;;;;;;;;;;16.49;39.19824;102324;;;;-81
2022/05/01 18:42:05;;;;;;;;;;;;;;;16.23;39.3457;102326.8;;;;-81
2022/05/01 18:47:06;;;;;;;;;;;;;;;15.96;39.63867;102333.7;;;;-80
2022/05/01 18:52:08;;;;;;;;;;;;;;;15.67;39.80566;102337.7;;;;-78
2022/05/01 18:57:06;;;;;;;;;;;;;;;15.38;40.0625;102342.9;;;;-80
2022/05/01 19:00:43;;;;;;;4;1.9;;;;;;;;;;;;;-81
2022/05/01 19:02:06;;;;;;;;;;;;;;;15.11;40.24121;102351.5;;;;-80
2022/05/01 19:07:08;;;;;;;;;;;;;;;14.83;40.62305;102363.2;;;;-80
2022/05/01 19:12:11;;;;;;;;;;;;;;;14.56;41.01563;102368.5;;;;-81
2022/05/01 19:17:07;;;;;;;;;;;;;;;14.28;41.4082;102372;;;;-80
2022/05/01 19:22:16;;;;;;;;;;;;;;;14.02;41.74414;102369.8;;;;-80
2022/05/01 19:27:09;;;;;;;;;;;;;;;13.78;42.12695;102371.5;;;;-79
2022/05/01 19:31:00;;;;;;;3.4;2.1;;;;;;;;;;;;;-80
2022/05/01 19:32:14;;;;;;;;;;;;;;;13.55;42.5332;102374.8;;;;-82
2022/05/01 19:37:15;;;;;;;;;;;;;;;13.34;42.74902;102374;;;;-80
2022/05/01 19:42:19;;;;;;;;;;;;;;;13.09;43.17578;102379.2;;;;-80
2022/05/01 19:57:14;;;;;;;;;;;;;;;12.49;44.16016;102377.7;;;;-80
2022/05/01 20:00:48;;;;;;;3.8;2.4;;;;;;;;;;;;;-80
2022/05/01 20:02:05;;;;;;;;;;;;;;;12.31;44.44531;102381.6;;;;-81
2022/05/01 20:07:06;;;;;;;;;;;;;;;12.12;44.91992;102377.7;;;;-81
2022/05/01 20:12:04;;;;;;;;;;;;;;;11.94;44.94727;102383;;;;-80
2022/05/01 20:22:06;;;;;;;;;;;;;;;11.6;45.63965;102388.4;;;;-82
2022/05/01 20:27:16;;;;;;;;;;;;;;;11.44;45.8584;102384.9;;;;-80
2022/05/01 20:30:49;;;;;;;4.3;2.7;;;;;;;;;;;;;-81
2022/05/01 20:32:11;;;;;;;;;;;;;;;11.28;45.97559;102386.7;;;;-80
2022/05/01 20:37:13;;;;;;;;;;;;;;;11.14;46.29688;102386.9;;;;-81
2022/05/01 20:42:10;;;;;;;;;;;;;;;11;46.44922;102387.2;;;;-80
2022/05/01 20:47:08;;;;;;;;;;;;;;;10.88;46.57129;102387;;;;-80
2022/05/01 20:52:06;;;;;;;;;;;;;;;10.72;46.7998;102385.9;;;;-80
2022/05/01 20:57:07;;;;;;;;;;;;;;;10.59;46.83008;102385;;;;-81
2022/05/01 21:00:47;;;;;;;4.4;2.4;;;;;;;;;;;;;-81
2022/05/01 21:02:05;;;;;;;;;;;;;;;10.45;47.07324;102377.4;;;;-81
2022/05/01 21:07:06;;;;;;;;;;;;;;;10.34;47.25098;102378.4;;;;-82
2022/05/01 21:12:12;;;;;;;;;;;;;;;10.22;47.38281;102380.5;;;;-81
2022/05/01 21:17:06;;;;;;;;;;;;;;;10.11;47.44824;102379.5;;;;-80
2022/05/01 21:22:05;;;;;;;;;;;;;;;10;47.71582;102380.1;;;;-80
2022/05/01 21:27:07;;;;;;;;;;;;;;;9.91;47.69434;102377.4;;;;-80
2022/05/01 21:37:27;;;;;;;;;;;;;;;;;;;;;
2022/05/01 21:42:05;;;;;;;;;;;;;;;9.63;48.32227;102376.6;;;;-79
2022/05/01 21:47:04;;;;;;;;;;;;;;;9.55;48.60254;102371;;;;-81
2022/05/01 21:52:05;;;;;;;;;;;;;;;9.46;49.06055;102366.5;;;;-80
2022/05/01 21:57:05;;;;;;;;;;;;;;;9.41;49.43262;102364.5;;;;-81
2022/05/01 22:00:51;;;;;;;7.9;3.1;;;;;;;;;;;;;-80
2022/05/01 22:02:08;;;;;;;;;;;;;;;9.39;49.53125;102355.7;;;;-81
2022/05/01 22:07:04;;;;;;;;;;;;;;;9.36;49.61719;102355;;;;-79
2022/05/01 22:12:05;;;;;;;;;;;;;;;9.33;49.83594;102347.1;;;;-79
2022/05/01 22:17:14;;;;;;;;;;;;;;;9.29;50.05371;102347.6;;;;-79
2022/05/01 22:22:07;;;;;;;;;;;;;;;9.25;50.38379;102346.8;;;;-80
2022/05/01 22:27:05;;;;;;;;;;;;;;;9.22;50.47949;102345.5;;;;-80
2022/05/01 22:30:49;;;;;;;4.5;2.8;;;;;;;;;;;;;-78
2022/05/01 22:32:04;;;;;;;;;;;;;;;9.19;50.53223;102342.9;;;;-79
2022/05/01 22:42:06;;;;;;;;;;;;;;;9.12;50.5918;102340;;;;-80
2022/05/01 22:47:04;;;;;;;;;;;;;;;9.08;50.65332;102340.2;;;;-81
2022/05/01 22:52:05;;;;;;;;;;;;;;;9.05;50.77246;102336.3;;;;-78
2022/05/01 22:57:05;;;;;;;;;;;;;;;8.99;50.84277;102329.6;;;;-81
2022/05/01 23:00:50;;;;;;;5.9;2.7;;;;;;;;;;;;;-80
2022/05/01 23:02:05;;;;;;;;;;;;;;;8.95;51.16016;102328.7;;;;-79
2022/05/01 23:07:05;;;;;;;;;;;;;;;8.93;51.34766;102329.8;;;;-83
2022/05/01 23:12:06;;;;;;;;;;;;;;;8.89;51.71973;102323.1;;;;-78
2022/05/01 23:17:05;;;;;;;;;;;;;;;8.87;51.70703;102322;;;;-79
2022/05/01 23:22:11;;;;;;;;;;;;;;;8.83;51.96875;102321.8;;;;-79
2022/05/01 23:27:05;;;;;;;;;;;;;;;8.8;52.07617;102322.1;;;;-78
2022/05/01 23:30:50;;;;;;;5.3;2.9;;;;;;;;;;;;;-79
2022/05/01 23:32:06;;;;;;;;;;;;;;;8.77;52.43945;102319.2;;;;-79
2022/05/01 23:37:07;;;;;;;;;;;;;;;8.73;52.81152;102318.5;;;;-80
2022/05/01 23:42:04;;;;;;;;;;;;;;;8.68;52.49609;102316;;;;-80
2022/05/01 23:47:04;;;;;;;;;;;;;;;8.67;52.50586;102321;;;;-80
2022/05/01 23:52:04;;;;;;;;;;;;;;;8.64;52.63477;102320.5;;;;-81
2022/05/01 23:57:04;;;;;;;;;;;;;;;8.59;52.50586;102312.9;;;;-78
